createdAt,value
2018-05-16T00:01:29.696Z,19.87
2018-05-16T00:03:57.978Z,19.85
2018-05-16T00:06:25.576Z,19.79
2018-05-16T00:08:53.152Z,19.78
2018-05-16T00:11:20.879Z,19.73
2018-05-16T00:13:48.478Z,19.70
2018-05-16T00:16:16.116Z,19.72
2018-05-16T00:18:43.913Z,19.74
2018-05-16T00:21:11.496Z,19.76
2018-05-16T00:23:39.066Z,19.71
2018-05-16T00:26:06.712Z,19.68
2018-05-16T00:28:34.280Z,19.65
2018-05-16T00:31:02.604Z,19.63
2018-05-16T00:33:30.347Z,19.62
2018-05-16T00:35:57.924Z,19.63
2018-05-16T00:38:25.567Z,19.65
2018-05-16T00:40:53.209Z,19.64
2018-05-16T00:43:20.887Z,19.61
2018-05-16T00:45:48.526Z,19.59
2018-05-16T00:48:16.316Z,19.54
2018-05-16T00:50:55.867Z,19.53
2018-05-16T00:53:23.488Z,19.51
2018-05-16T00:55:51.125Z,19.46
2018-05-16T00:58:18.762Z,19.44
2018-05-16T01:00:46.809Z,19.45
2018-05-16T01:03:14.413Z,19.47
2018-05-16T01:05:42.048Z,19.49
2018-05-16T01:08:09.852Z,19.49
2018-05-16T01:10:37.505Z,19.52
2018-05-16T01:13:05.146Z,19.52
2018-05-16T01:15:33.309Z,19.48
2018-05-16T01:18:00.882Z,19.47
2018-05-16T01:20:28.486Z,19.43
2018-05-16T01:22:56.210Z,19.40
2018-05-16T01:25:23.845Z,19.38
2018-05-16T01:27:51.501Z,19.39
2018-05-16T01:30:19.136Z,19.37
2018-05-16T01:32:46.712Z,19.32
2018-05-16T01:35:14.293Z,19.31
2018-05-16T01:37:42.036Z,19.32
2018-05-16T01:40:09.676Z,19.30
2018-05-16T01:42:37.246Z,19.25
2018-05-16T01:45:04.901Z,19.23
2018-05-16T01:47:32.491Z,19.18
2018-05-16T01:50:00.078Z,19.17
2018-05-16T01:52:27.868Z,19.12
2018-05-16T01:54:56.200Z,19.10
2018-05-16T01:57:23.784Z,19.08
2018-05-16T01:59:51.568Z,19.04
2018-05-16T02:02:19.147Z,19.03
2018-05-16T02:04:46.784Z,19.00
2018-05-16T02:07:14.466Z,19.02
2018-05-16T02:09:42.112Z,19.00
2018-05-16T02:12:09.683Z,19.02
2018-05-16T02:14:37.394Z,19.06
2018-05-16T02:17:04.993Z,19.08
2018-05-16T02:19:32.583Z,19.09
2018-05-16T02:22:00.272Z,19.11
2018-05-16T02:24:27.862Z,19.14
2018-05-16T02:26:55.489Z,19.16
2018-05-16T02:29:23.164Z,19.20
2018-05-16T02:31:50.735Z,19.19
2018-05-16T02:34:18.315Z,19.20
2018-05-16T02:36:45.955Z,19.20
2018-05-16T02:39:13.538Z,19.19
2018-05-16T02:41:41.177Z,19.18
2018-05-16T02:44:08.908Z,19.16
2018-05-16T02:46:36.562Z,19.18
2018-05-16T02:49:04.160Z,19.21
2018-05-16T02:51:31.850Z,19.23
2018-05-16T02:53:59.433Z,19.23
2018-05-16T02:56:27.015Z,19.23
2018-05-16T02:58:54.669Z,19.23
2018-05-16T03:01:22.317Z,19.22
2018-05-16T03:03:49.904Z,19.24
2018-05-16T03:06:17.636Z,19.28
2018-05-16T03:08:45.660Z,19.29
2018-05-16T03:11:13.308Z,19.29
2018-05-16T03:13:41.805Z,19.29
2018-05-16T03:16:09.407Z,19.29
2018-05-16T03:18:36.998Z,19.29
2018-05-16T03:21:04.731Z,19.29
2018-05-16T03:23:32.368Z,19.32
2018-05-16T03:25:59.975Z,19.33
2018-05-16T03:28:27.617Z,19.33
2018-05-16T03:30:55.198Z,19.32
2018-05-16T03:33:22.857Z,19.30
2018-05-16T03:35:50.573Z,19.29
2018-05-16T03:38:18.152Z,19.28
2018-05-16T03:40:45.727Z,19.26
2018-05-16T03:43:13.463Z,19.24
2018-05-16T03:45:41.044Z,19.23
2018-05-16T03:48:08.670Z,19.24
2018-05-16T03:50:36.399Z,19.26
2018-05-16T03:53:03.992Z,19.28
2018-05-16T03:55:31.583Z,19.27
2018-05-16T03:58:19.714Z,19.25
2018-05-16T04:01:10.728Z,19.26
2018-05-16T04:03:50.067Z,19.30
2018-05-16T04:06:17.651Z,19.29
2018-05-16T04:08:45.229Z,19.35
2018-05-16T04:11:13.058Z,19.40
2018-05-16T04:13:40.639Z,19.52
2018-05-16T04:16:08.235Z,19.64
2018-05-16T04:18:36.038Z,19.77
2018-05-16T04:21:03.684Z,19.87
2018-05-16T04:23:31.261Z,19.98
2018-05-16T04:25:58.994Z,20.10
2018-05-16T04:28:26.642Z,20.18
2018-05-16T04:30:54.213Z,20.25
2018-05-16T04:33:22.361Z,20.29
2018-05-16T04:35:49.945Z,20.38
2018-05-16T04:38:17.528Z,20.46
2018-05-16T04:40:45.152Z,20.51
2018-05-16T04:43:12.727Z,20.55
2018-05-16T04:45:40.329Z,20.54
2018-05-16T04:48:08.089Z,20.64
2018-05-16T04:50:36.279Z,20.74
2018-05-16T04:53:03.852Z,20.83
2018-05-16T04:55:31.478Z,20.86
2018-05-16T04:57:59.068Z,20.93
2018-05-16T05:00:26.661Z,21.07
2018-05-16T05:02:54.340Z,21.19
2018-05-16T05:05:21.925Z,21.33
2018-05-16T05:07:49.515Z,21.42
2018-05-16T05:10:17.188Z,21.45
2018-05-16T05:12:44.815Z,21.45
2018-05-16T05:15:12.405Z,21.38
2018-05-16T05:17:40.049Z,21.40
2018-05-16T05:20:07.652Z,21.44
2018-05-16T05:22:35.227Z,21.40
2018-05-16T05:25:02.852Z,21.40
2018-05-16T05:27:30.504Z,21.48
2018-05-16T05:29:58.089Z,21.61
2018-05-16T05:32:25.835Z,21.71
2018-05-16T05:34:53.423Z,21.71
2018-05-16T05:37:21.000Z,21.70
2018-05-16T05:39:48.639Z,21.73
2018-05-16T05:42:16.242Z,21.78
2018-05-16T05:44:43.847Z,21.85
2018-05-16T05:47:12.123Z,21.92
2018-05-16T05:49:39.707Z,22.03
2018-05-16T05:52:07.300Z,22.14
2018-05-16T05:54:34.941Z,22.20
2018-05-16T05:57:02.549Z,22.26
2018-05-16T05:59:30.146Z,22.39
2018-05-16T06:01:57.860Z,22.57
2018-05-16T06:04:25.451Z,22.76
2018-05-16T06:06:53.036Z,22.74
2018-05-16T06:09:20.780Z,22.82
2018-05-16T06:11:48.461Z,22.95
2018-05-16T06:14:16.084Z,23.23
2018-05-16T06:16:43.733Z,23.69
2018-05-16T06:19:11.322Z,24.04
2018-05-16T06:21:38.923Z,24.47
2018-05-16T06:24:06.584Z,24.97
2018-05-16T06:26:34.209Z,24.95
2018-05-16T06:29:02.408Z,25.12
2018-05-16T06:31:30.056Z,25.38
2018-05-16T06:33:57.668Z,25.68
2018-05-16T06:36:25.260Z,25.84
2018-05-16T06:38:52.972Z,26.21
2018-05-16T06:41:20.586Z,26.45
2018-05-16T06:43:48.193Z,26.57
2018-05-16T06:46:15.912Z,26.72
2018-05-16T06:48:44.121Z,26.88
2018-05-16T06:51:11.705Z,26.90
2018-05-16T06:53:39.349Z,26.92
2018-05-16T06:56:06.941Z,26.88
2018-05-16T06:58:34.535Z,26.94
2018-05-16T07:01:02.168Z,27.04
2018-05-16T07:03:29.804Z,27.08
2018-05-16T07:05:57.405Z,27.32
2018-05-16T07:08:25.056Z,27.35
2018-05-16T07:10:52.653Z,27.43
2018-05-16T07:13:20.248Z,27.41
2018-05-16T07:15:48.009Z,27.26
2018-05-16T07:18:15.591Z,27.14
2018-05-16T07:20:43.185Z,27.06
2018-05-16T07:23:10.875Z,26.91
2018-05-16T07:25:38.422Z,27.08
2018-05-16T07:28:06.017Z,27.20
2018-05-16T07:30:33.658Z,27.18
2018-05-16T07:33:01.236Z,27.19
2018-05-16T07:35:28.821Z,27.38
2018-05-16T07:37:56.561Z,27.60
2018-05-16T07:40:24.160Z,27.50
2018-05-16T07:42:51.769Z,27.37
2018-05-16T07:45:19.488Z,27.39
2018-05-16T07:47:47.567Z,27.21
2018-05-16T07:50:15.155Z,27.19
2018-05-16T07:52:42.789Z,27.12
2018-05-16T07:55:10.385Z,26.26
2018-05-16T07:57:38.316Z,26.06
2018-05-16T08:00:05.985Z,26.52
2018-05-16T08:02:33.588Z,26.43
2018-05-16T08:05:01.524Z,26.34
2018-05-16T08:07:29.162Z,26.30
2018-05-16T08:09:56.749Z,26.38
2018-05-16T08:12:24.335Z,26.60
2018-05-16T08:14:51.972Z,27.01
2018-05-16T08:17:19.561Z,27.14
2018-05-16T08:19:47.151Z,27.34
2018-05-16T08:22:14.864Z,27.40
2018-05-16T08:24:42.467Z,27.49
2018-05-16T08:27:10.072Z,27.26
2018-05-16T08:29:37.701Z,27.38
2018-05-16T08:32:05.293Z,27.71
2018-05-16T08:34:32.887Z,28.07
2018-05-16T08:37:00.519Z,28.17
2018-05-16T08:39:28.113Z,28.41
2018-05-16T08:41:55.696Z,28.37
2018-05-16T08:44:23.327Z,28.67
2018-05-16T08:46:50.950Z,28.68
2018-05-16T08:49:18.531Z,28.85
2018-05-16T08:51:46.176Z,29.01
2018-05-16T08:54:13.757Z,29.14
2018-05-16T08:56:41.355Z,29.33
2018-05-16T08:59:09.072Z,29.43
2018-05-16T09:01:36.659Z,28.90
2018-05-16T09:04:04.249Z,28.52
2018-05-16T09:06:31.876Z,28.20
2018-05-16T09:08:59.455Z,27.54
2018-05-16T09:11:27.041Z,27.66
2018-05-16T09:13:54.667Z,27.95
2018-05-16T09:16:22.248Z,28.14
2018-05-16T09:18:49.841Z,28.36
2018-05-16T09:21:17.564Z,28.56
2018-05-16T09:23:45.153Z,28.74
2018-05-16T09:26:12.749Z,28.65
2018-05-16T09:28:40.392Z,28.42
2018-05-16T09:31:07.990Z,28.41
2018-05-16T09:33:35.571Z,28.48
2018-05-16T09:36:03.201Z,28.64
2018-05-16T09:38:30.796Z,28.81
2018-05-16T09:40:58.372Z,28.99
2018-05-16T09:43:26.122Z,28.91
2018-05-16T09:45:53.814Z,28.85
2018-05-16T09:48:21.409Z,28.95
2018-05-16T09:50:49.118Z,29.10
2018-05-16T09:53:16.704Z,29.16
2018-05-16T09:55:44.354Z,29.32
2018-05-16T09:58:12.056Z,29.55
2018-05-16T10:00:39.742Z,29.50
2018-05-16T10:03:07.373Z,29.46
2018-05-16T10:05:35.054Z,29.36
2018-05-16T10:08:02.698Z,29.71
2018-05-16T10:10:30.408Z,29.84
2018-05-16T10:12:58.220Z,29.74
2018-05-16T10:15:25.876Z,29.48
2018-05-16T10:17:54.502Z,29.27
2018-05-16T10:20:22.536Z,29.53
2018-05-16T10:22:50.174Z,29.69
2018-05-16T10:25:17.813Z,29.97
2018-05-16T10:27:45.512Z,30.29
2018-05-16T10:30:13.164Z,30.58
2018-05-16T10:32:40.840Z,30.88
2018-05-16T10:35:08.616Z,30.88
2018-05-16T10:37:36.238Z,30.84
2018-05-16T10:40:03.965Z,30.67
2018-05-16T10:42:31.655Z,30.62
2018-05-16T10:44:59.297Z,30.70
2018-05-16T10:47:26.940Z,30.84
2018-05-16T10:49:54.740Z,30.93
2018-05-16T10:52:22.424Z,31.13
2018-05-16T10:54:50.056Z,31.31
2018-05-16T10:57:17.782Z,31.20
2018-05-16T10:59:45.630Z,30.95
2018-05-16T11:02:13.091Z,30.83
2018-05-16T11:04:40.773Z,30.93
2018-05-16T11:07:08.419Z,31.04
2018-05-16T11:09:36.070Z,30.99
2018-05-16T11:12:03.804Z,31.15
2018-05-16T11:14:31.437Z,30.97
2018-05-16T11:16:59.322Z,30.62
2018-05-16T11:19:26.996Z,30.73
2018-05-16T11:21:54.633Z,30.74
2018-05-16T11:24:22.269Z,31.03
2018-05-16T11:26:50.049Z,31.12
2018-05-16T11:29:18.236Z,31.25
2018-05-16T11:31:45.871Z,31.52
2018-05-16T11:34:13.549Z,31.62
2018-05-16T11:36:41.269Z,31.53
2018-05-16T11:39:09.042Z,31.79
2018-05-16T11:41:36.795Z,32.01
2018-05-16T11:44:04.453Z,31.89
2018-05-16T11:46:32.099Z,31.76
2018-05-16T11:48:59.875Z,31.01
2018-05-16T11:51:27.504Z,30.84
2018-05-16T11:53:55.216Z,30.78
2018-05-16T11:56:22.996Z,31.13
2018-05-16T11:58:50.742Z,31.34
2018-05-16T12:01:18.378Z,31.37
2018-05-16T12:03:46.229Z,30.94
2018-05-16T12:06:13.875Z,30.80
2018-05-16T12:08:41.584Z,30.93
2018-05-16T12:11:09.369Z,31.17
2018-05-16T12:13:37.000Z,31.06
2018-05-16T12:16:04.673Z,31.31
2018-05-16T12:18:32.462Z,31.60
2018-05-16T12:21:00.209Z,31.48
2018-05-16T12:23:27.852Z,31.18
2018-05-16T12:25:55.673Z,31.22
2018-05-16T12:28:23.319Z,31.11
2018-05-16T12:30:50.952Z,31.31
2018-05-16T12:33:18.635Z,31.40
2018-05-16T12:35:46.328Z,31.37
2018-05-16T12:38:13.956Z,31.54
2018-05-16T12:40:41.627Z,31.64
2018-05-16T12:43:17.009Z,31.44
2018-05-16T12:45:44.700Z,31.12
2018-05-16T12:48:12.333Z,31.14
2018-05-16T12:50:39.972Z,31.21
2018-05-16T12:53:07.753Z,31.32
2018-05-16T12:55:35.457Z,31.42
2018-05-16T12:58:03.200Z,31.34
2018-05-16T13:00:30.899Z,31.10
2018-05-16T13:02:58.557Z,30.88
2018-05-16T13:05:26.183Z,31.00
2018-05-16T13:07:54.016Z,31.08
2018-05-16T13:10:21.720Z,30.89
2018-05-16T13:12:49.975Z,30.96
2018-05-16T13:15:17.664Z,31.07
2018-05-16T13:17:45.327Z,31.03
2018-05-16T13:20:12.965Z,30.86
2018-05-16T13:22:40.660Z,30.73
2018-05-16T13:25:08.383Z,30.58
2018-05-16T13:27:36.049Z,30.54
2018-05-16T13:30:03.911Z,30.47
2018-05-16T13:32:31.544Z,30.40
2018-05-16T13:34:59.249Z,30.43
2018-05-16T13:37:26.964Z,30.39
2018-05-16T13:39:54.626Z,30.35
2018-05-16T13:42:22.283Z,30.45
2018-05-16T13:44:49.986Z,30.53
2018-05-16T13:47:17.641Z,30.63
2018-05-16T13:49:45.302Z,30.62
2018-05-16T13:52:13.097Z,30.66
2018-05-16T13:54:40.726Z,30.74
2018-05-16T13:57:08.427Z,30.79
2018-05-16T13:59:36.118Z,30.85
2018-05-16T14:02:03.782Z,30.74
2018-05-16T14:04:31.420Z,30.83
2018-05-16T14:06:59.111Z,30.94
2018-05-16T14:09:26.837Z,30.94
2018-05-16T14:11:54.533Z,30.75
2018-05-16T14:14:22.579Z,30.55
2018-05-16T14:16:50.280Z,30.55
2018-05-16T14:19:18.007Z,30.52
2018-05-16T14:21:46.588Z,30.54
2018-05-16T14:24:14.245Z,30.55
2018-05-16T14:26:41.990Z,30.62
2018-05-16T14:29:09.696Z,30.57
2018-05-16T14:31:37.346Z,30.43
2018-05-16T14:34:05.053Z,30.44
2018-05-16T14:36:32.734Z,30.38
2018-05-16T14:39:00.427Z,29.94
2018-05-16T14:41:28.114Z,29.55
2018-05-16T14:43:55.795Z,29.21
2018-05-16T14:46:23.495Z,29.11
2018-05-16T14:48:51.135Z,29.06
2018-05-16T14:51:18.882Z,29.06
2018-05-16T14:53:46.526Z,29.02
2018-05-16T14:56:14.160Z,29.04
2018-05-16T14:58:41.875Z,29.12
2018-05-16T15:01:09.581Z,29.00
2018-05-16T15:03:38.310Z,28.85
2018-05-16T15:06:06.064Z,28.88
2018-05-16T15:08:33.794Z,28.84
2018-05-16T15:11:01.443Z,28.73
2018-05-16T15:13:29.146Z,28.77
2018-05-16T15:15:56.771Z,28.80
2018-05-16T15:18:24.484Z,28.81
2018-05-16T15:20:52.167Z,28.80
2018-05-16T15:23:19.804Z,28.84
2018-05-16T15:25:47.434Z,28.85
2018-05-16T15:28:15.369Z,28.89
2018-05-16T15:30:43.007Z,28.90
2018-05-16T15:33:10.668Z,28.89
2018-05-16T15:35:38.451Z,28.80
2018-05-16T15:38:06.176Z,28.85
2018-05-16T15:40:33.896Z,28.86
2018-05-16T15:43:01.632Z,28.82
2018-05-16T15:45:29.395Z,28.70
2018-05-16T15:47:57.083Z,28.65
2018-05-16T15:50:25.127Z,28.40
2018-05-16T15:52:52.779Z,28.36
2018-05-16T15:55:20.468Z,28.28
2018-05-16T15:57:48.337Z,28.18
2018-05-16T16:00:16.060Z,28.11
2018-05-16T16:02:43.769Z,28.03
2018-05-16T16:05:11.904Z,28.00
2018-05-16T16:07:39.540Z,27.98
2018-05-16T16:10:07.240Z,27.92
2018-05-16T16:12:35.004Z,27.89
2018-05-16T16:15:02.741Z,27.83
2018-05-16T16:17:30.555Z,27.74
2018-05-16T16:19:58.240Z,27.72
2018-05-16T16:22:25.933Z,27.71
2018-05-16T16:24:53.559Z,27.71
2018-05-16T16:27:21.281Z,27.64
2018-05-16T16:29:48.967Z,27.55
2018-05-16T16:32:16.615Z,27.51
2018-05-16T16:34:44.284Z,27.45
2018-05-16T16:37:11.914Z,27.39
2018-05-16T16:39:39.551Z,27.34
2018-05-16T16:42:07.347Z,27.22
2018-05-16T16:44:34.987Z,27.02
2018-05-16T16:47:02.639Z,26.88
2018-05-16T16:49:30.310Z,26.79
2018-05-16T16:51:57.963Z,26.65
2018-05-16T16:54:25.590Z,26.53
2018-05-16T16:56:53.274Z,26.46
2018-05-16T16:59:20.859Z,26.34
2018-05-16T17:01:49.563Z,26.25
2018-05-16T17:04:18.019Z,26.13
2018-05-16T17:06:45.939Z,26.03
2018-05-16T17:09:13.541Z,25.88
2018-05-16T17:11:41.357Z,25.81
2018-05-16T17:14:09.015Z,25.77
2018-05-16T17:16:36.662Z,25.75
2018-05-16T17:19:05.049Z,25.67
2018-05-16T17:21:32.708Z,25.63
2018-05-16T17:24:00.296Z,25.58
2018-05-16T17:26:27.960Z,25.52
2018-05-16T17:28:56.484Z,25.48
2018-05-16T17:31:24.104Z,25.39
2018-05-16T17:33:51.800Z,25.36
2018-05-16T17:36:19.386Z,25.36
2018-05-16T17:38:46.998Z,25.35
2018-05-16T17:41:14.713Z,25.32
2018-05-16T17:43:42.322Z,25.25
2018-05-16T17:46:09.943Z,25.23
2018-05-16T17:48:37.612Z,25.19
2018-05-16T17:51:05.261Z,25.15
2018-05-16T17:53:32.860Z,25.09
2018-05-16T17:56:00.502Z,25.06
2018-05-16T17:58:28.131Z,25.04
2018-05-16T18:00:55.803Z,25.00
2018-05-16T18:03:23.405Z,24.98
2018-05-16T18:05:50.985Z,24.91
2018-05-16T18:08:18.568Z,24.79
2018-05-16T18:10:46.215Z,24.67
2018-05-16T18:16:49.473Z,24.50
2018-05-16T18:19:17.089Z,24.42
2018-05-16T18:21:44.728Z,24.39
2018-05-16T18:24:12.452Z,24.34
2018-05-16T18:26:40.026Z,24.26
2018-05-16T18:29:07.730Z,24.23
2018-05-16T18:31:35.807Z,24.26
2018-05-16T18:34:03.383Z,24.24
2018-05-16T18:36:30.964Z,24.27
2018-05-16T18:38:58.593Z,24.24
2018-05-16T18:41:26.184Z,24.19
2018-05-16T18:43:53.784Z,24.17
2018-05-16T18:46:21.489Z,24.14
2018-05-16T18:48:49.153Z,24.16
2018-05-16T18:51:16.822Z,24.19
2018-05-16T18:53:44.442Z,24.19
2018-05-16T18:56:12.048Z,24.20
2018-05-16T18:58:39.691Z,24.18
2018-05-16T19:01:07.444Z,24.17
2018-05-16T19:03:43.273Z,24.15
2018-05-16T19:06:11.308Z,24.11
2018-05-16T19:08:38.982Z,24.00
2018-05-16T19:11:06.638Z,23.87
2018-05-16T19:13:34.316Z,23.75
2018-05-16T19:16:01.923Z,23.63
2018-05-16T19:18:29.557Z,23.55
2018-05-16T19:20:57.279Z,23.53
2018-05-16T19:23:24.901Z,23.52
2018-05-16T19:25:52.523Z,23.48
2018-05-16T19:28:20.213Z,23.45
2018-05-16T19:30:47.815Z,23.45
2018-05-16T19:33:15.441Z,23.43
2018-05-16T19:35:43.252Z,23.46
2018-05-16T19:38:10.905Z,23.44
2018-05-16T19:40:38.502Z,23.48
2018-05-16T19:43:06.219Z,23.51
2018-05-16T19:45:33.794Z,23.51
2018-05-16T19:48:01.475Z,23.48
2018-05-16T19:50:29.165Z,23.50
2018-05-16T19:52:56.905Z,23.53
2018-05-16T19:55:24.475Z,23.50
2018-05-16T19:57:52.108Z,23.47
2018-05-16T20:00:19.703Z,23.47
2018-05-16T20:02:47.278Z,23.41
2018-05-16T20:05:14.897Z,23.36
2018-05-16T20:07:42.473Z,23.36
2018-05-16T20:10:10.060Z,23.37
2018-05-16T20:12:37.672Z,23.37
2018-05-16T20:15:05.346Z,23.33
2018-05-16T20:17:33.004Z,23.31
2018-05-16T20:20:00.642Z,23.26
2018-05-16T20:22:28.291Z,23.22
2018-05-16T20:24:56.703Z,23.12
2018-05-16T20:27:24.476Z,23.08
2018-05-16T20:29:52.059Z,23.05
2018-05-16T20:32:19.636Z,23.06
2018-05-16T20:34:47.416Z,23.09
2018-05-16T20:37:15.628Z,23.11
2018-05-16T20:39:43.265Z,23.15
2018-05-16T20:42:10.984Z,23.17
2018-05-16T20:44:38.554Z,23.18
2018-05-16T20:47:06.140Z,23.18
2018-05-16T20:49:33.762Z,23.17
2018-05-16T20:52:01.342Z,23.16
2018-05-16T20:54:28.977Z,23.14
2018-05-16T20:56:56.612Z,23.12
2018-05-16T20:59:24.218Z,23.14
2018-05-16T21:01:51.811Z,23.15
2018-05-16T21:04:19.611Z,23.16
2018-05-16T21:06:47.247Z,23.09
2018-05-16T21:09:14.829Z,23.04
2018-05-16T21:11:43.295Z,23.05
2018-05-16T21:14:10.867Z,23.06
2018-05-16T21:16:38.480Z,23.05
2018-05-16T21:19:06.144Z,23.05
2018-05-16T21:21:33.756Z,23.06
2018-05-16T21:24:01.328Z,23.07
2018-05-16T21:26:29.132Z,23.02
2018-05-16T21:28:56.771Z,22.88
2018-05-16T21:31:24.388Z,22.81
2018-05-16T21:33:52.085Z,22.79
2018-05-16T21:36:23.494Z,22.73
2018-05-16T21:38:51.064Z,22.73
2018-05-16T21:41:18.690Z,22.75
2018-05-16T21:43:46.367Z,22.75
2018-05-16T21:46:13.940Z,22.74
2018-05-16T21:48:42.423Z,22.77
2018-05-16T21:51:10.055Z,22.80
2018-05-16T21:53:37.705Z,22.76
2018-05-16T21:56:05.367Z,22.69
2018-05-16T21:58:32.944Z,22.59
2018-05-16T22:01:00.521Z,22.55
2018-05-16T22:03:28.239Z,22.54
2018-05-16T22:05:55.810Z,22.58
2018-05-16T22:08:23.385Z,22.59
2018-05-16T22:10:51.093Z,22.61
2018-05-16T22:13:18.690Z,22.59
2018-05-16T22:15:46.285Z,22.55
2018-05-16T22:18:13.912Z,22.49
2018-05-16T22:20:41.490Z,22.49
2018-05-16T22:23:09.068Z,22.44
2018-05-16T22:25:36.680Z,22.37
2018-05-16T22:28:04.292Z,22.31
2018-05-16T22:30:37.578Z,22.30
2018-05-16T22:33:10.724Z,22.27
2018-05-16T22:35:43.935Z,22.23
2018-05-16T22:38:17.155Z,22.18
2018-05-16T22:40:50.321Z,22.13
2018-05-16T22:43:17.934Z,22.12
2018-05-16T22:45:45.607Z,22.12
2018-05-16T22:48:13.326Z,22.11
2018-05-16T22:50:40.907Z,22.08
2018-05-16T22:53:09.199Z,22.04
2018-05-16T22:55:36.832Z,21.99
2018-05-16T22:58:04.428Z,21.98
2018-05-16T23:00:32.071Z,21.94
2018-05-16T23:02:59.770Z,21.84
2018-05-16T23:05:27.351Z,21.71
2018-05-16T23:07:54.914Z,21.62
2018-05-16T23:10:22.627Z,21.51
2018-05-16T23:12:50.210Z,21.38
2018-05-16T23:15:17.840Z,21.31
2018-05-16T23:17:45.581Z,21.28
2018-05-16T23:20:13.168Z,21.22
2018-05-16T23:22:40.808Z,21.15
2018-05-16T23:25:08.501Z,21.01
2018-05-16T23:27:36.671Z,20.95
2018-05-16T23:30:04.271Z,20.87
2018-05-16T23:32:31.953Z,20.77
2018-05-16T23:34:59.536Z,20.70
2018-05-16T23:37:27.134Z,20.66
2018-05-16T23:39:54.760Z,20.63
2018-05-16T23:42:22.337Z,20.63
2018-05-16T23:44:50.850Z,20.62
2018-05-16T23:47:18.548Z,20.60
2018-05-16T23:49:46.888Z,20.56
2018-05-16T23:52:14.516Z,20.53
2018-05-16T23:54:42.211Z,20.51
2018-05-16T23:57:09.828Z,20.51
2018-05-16T23:59:37.460Z,20.55
